sensor_id;sensor_type;location;lat;lon;timestamp;pressure;altitude;pressure_sealevel;temperature;humidity
10014;BME280;45684;48.358;10.746;2023-08-01T00:00:28;95360.13;;;19.59;nan
10014;BME280;45684;48.358;10.746;2023-08-01T00:02:58;95363.63;;;19.56;nan
10014;BME280;45684;48.358;10.746;2023-08-01T00:05:26;95353.06;;;19.48;nan
10014;BME280;45684;48.358;10.746;2023-08-01T00:07:53;95347.22;;;19.49;nan
10014;BME280;45684;48.358;10.746;2023-08-01T00:10:21;95338.16;;;19.49;nan
10014;BME280;45684;48.358;10.746;2023-08-01T00:12:49;95338.56;;;19.51;nan
10014;BME280;45684;48.358;10.746;2023-08-01T00:15:17;95334.25;;;19.53;nan
10014;BME280;45684;48.358;10.746;2023-08-01T00:17:45;95332.69;;;19.56;nan
10014;BME280;45684;48.358;10.746;2023-08-01T00:20:14;95328.38;;;19.58;nan
10014;BME280;45684;48.358;10.746;2023-08-01T00:22:42;95322.91;;;19.62;nan
10014;BME280;45684;48.358;10.746;2023-08-01T00:25:11;95308.41;;;19.65;nan
10014;BME280;45684;48.358;10.746;2023-08-01T00:27:38;95305.66;;;19.69;nan
10014;BME280;45684;48.358;10.746;2023-08-01T00:30:07;95287.22;;;19.73;nan
10014;BME280;45684;48.358;10.746;2023-08-01T00:32:36;95295.84;;;19.71;nan
10014;BME280;45684;48.358;10.746;2023-08-01T00:35:04;95290.34;;;19.71;nan
10014;BME280;45684;48.358;10.746;2023-08-01T00:37:34;95280.94;;;19.72;nan
10014;BME280;45684;48.358;10.746;2023-08-01T00:40:02;95282.91;;;19.72;nan
10014;BME280;45684;48.358;10.746;2023-08-01T00:42:31;95281.34;;;19.67;nan
10014;BME280;45684;48.358;10.746;2023-08-01T00:44:59;95282.53;;;19.62;nan
10014;BME280;45684;48.358;10.746;2023-08-01T00:47:27;95280.19;;;19.61;nan
10014;BME280;45684;48.358;10.746;2023-08-01T00:49:55;95282.53;;;19.66;nan
10014;BME280;45684;48.358;10.746;2023-08-01T00:52:23;95291.53;;;19.63;nan
10014;BME280;45684;48.358;10.746;2023-08-01T00:54:52;95286.06;;;19.63;nan
10014;BME280;45684;48.358;10.746;2023-08-01T00:57:21;95296.25;;;19.66;nan
10014;BME280;45684;48.358;10.746;2023-08-01T00:59:49;95291.16;;;19.68;nan
10014;BME280;45684;48.358;10.746;2023-08-01T01:02:17;95288.00;;;19.73;nan
10014;BME280;45684;48.358;10.746;2023-08-01T01:04:45;95282.53;;;19.73;nan
10014;BME280;45684;48.358;10.746;2023-08-01T01:07:13;95279.38;;;19.75;nan
10014;BME280;45684;48.358;10.746;2023-08-01T01:09:42;95275.84;;;19.74;nan
10014;BME280;45684;48.358;10.746;2023-08-01T01:12:11;95274.66;;;19.72;nan
10014;BME280;45684;48.358;10.746;2023-08-01T01:14:39;95270.78;;;19.69;nan
10014;BME280;45684;48.358;10.746;2023-08-01T01:17:07;95264.53;;;19.61;nan
10014;BME280;45684;48.358;10.746;2023-08-01T01:19:35;95254.75;;;19.60;nan
10014;BME280;45684;48.358;10.746;2023-08-01T01:22:06;95249.63;;;19.59;nan
10014;BME280;45684;48.358;10.746;2023-08-01T01:24:36;95241.00;;;19.57;nan
10014;BME280;45684;48.358;10.746;2023-08-01T01:27:05;95241.41;;;19.52;nan
10014;BME280;45684;48.358;10.746;2023-08-01T01:29:33;95234.38;;;19.51;nan
10014;BME280;45684;48.358;10.746;2023-08-01T01:32:38;95239.06;;;19.50;nan
10014;BME280;45684;48.358;10.746;2023-08-01T01:35:07;95227.31;;;19.50;nan
10014;BME280;45684;48.358;10.746;2023-08-01T01:37:36;95222.22;;;19.48;nan
10014;BME280;45684;48.358;10.746;2023-08-01T01:40:05;95228.09;;;19.54;nan
10014;BME280;45684;48.358;10.746;2023-08-01T01:42:34;95221.44;;;19.51;nan
10014;BME280;45684;48.358;10.746;2023-08-01T01:45:02;95217.91;;;19.54;nan
10014;BME280;45684;48.358;10.746;2023-08-01T01:47:30;95212.41;;;19.54;nan
10014;BME280;45684;48.358;10.746;2023-08-01T01:49:58;95197.53;;;19.55;nan
10014;BME280;45684;48.358;10.746;2023-08-01T01:52:26;95190.06;;;19.59;nan
10014;BME280;45684;48.358;10.746;2023-08-01T01:54:55;95189.28;;;19.59;nan
10014;BME280;45684;48.358;10.746;2023-08-01T01:57:23;95191.25;;;19.55;nan
10014;BME280;45684;48.358;10.746;2023-08-01T01:59:51;95185.78;;;19.55;nan
10014;BME280;45684;48.358;10.746;2023-08-01T02:02:19;95174.41;;;19.56;nan
10014;BME280;45684;48.358;10.746;2023-08-01T02:04:49;95180.66;;;19.57;nan
10014;BME280;45684;48.358;10.746;2023-08-01T02:07:18;95174.00;;;19.61;nan
10014;BME280;45684;48.358;10.746;2023-08-01T02:09:46;95176.75;;;19.65;nan
10014;BME280;45684;48.358;10.746;2023-08-01T02:12:15;95173.22;;;19.65;nan
10014;BME280;45684;48.358;10.746;2023-08-01T02:14:43;95176.75;;;19.65;nan
10014;BME280;45684;48.358;10.746;2023-08-01T02:17:11;95178.69;;;19.57;nan
10014;BME280;45684;48.358;10.746;2023-08-01T02:19:40;95177.53;;;19.55;nan
10014;BME280;45684;48.358;10.746;2023-08-01T02:22:08;95180.31;;;19.48;nan
10014;BME280;45684;48.358;10.746;2023-08-01T02:24:36;95197.94;;;19.47;nan
10014;BME280;45684;48.358;10.746;2023-08-01T02:27:04;95208.50;;;19.52;nan
10014;BME280;45684;48.358;10.746;2023-08-01T02:29:33;95214.38;;;19.54;nan
10014;BME280;45684;48.358;10.746;2023-08-01T02:32:02;95217.50;;;19.52;nan
10014;BME280;45684;48.358;10.746;2023-08-01T02:34:30;95214.38;;;19.54;nan
10014;BME280;45684;48.358;10.746;2023-08-01T02:36:58;95208.88;;;19.57;nan
10014;BME280;45684;48.358;10.746;2023-08-01T02:39:26;95219.84;;;19.61;nan
10014;BME280;45684;48.358;10.746;2023-08-01T02:41:54;95227.69;;;19.59;nan
10014;BME280;45684;48.358;10.746;2023-08-01T02:44:22;95213.59;;;19.64;nan
10014;BME280;45684;48.358;10.746;2023-08-01T02:46:51;95199.47;;;19.62;nan
10014;BME280;45684;48.358;10.746;2023-08-01T02:49:19;95208.88;;;19.57;nan
10014;BME280;45684;48.358;10.746;2023-08-01T02:51:47;95196.34;;;19.56;nan
10014;BME280;45684;48.358;10.746;2023-08-01T02:54:15;95199.91;;;19.50;nan
10014;BME280;45684;48.358;10.746;2023-08-01T02:56:43;95208.53;;;19.45;nan
10014;BME280;45684;48.358;10.746;2023-08-01T02:59:10;95197.94;;;19.43;nan
10014;BME280;45684;48.358;10.746;2023-08-01T03:01:39;95198.75;;;19.36;nan
10014;BME280;45684;48.358;10.746;2023-08-01T03:04:08;95192.09;;;19.34;nan
10014;BME280;45684;48.358;10.746;2023-08-01T03:06:38;95197.22;;;19.35;nan
10014;BME280;45684;48.358;10.746;2023-08-01T03:09:07;95191.31;;;19.33;nan
10014;BME280;45684;48.358;10.746;2023-08-01T03:11:35;95188.59;;;19.30;nan
10014;BME280;45684;48.358;10.746;2023-08-01T03:14:03;95193.69;;;19.28;nan
10014;BME280;45684;48.358;10.746;2023-08-01T03:16:32;95200.75;;;19.25;nan
10014;BME280;45684;48.358;10.746;2023-08-01T03:19:00;95196.44;;;19.21;nan
10014;BME280;45684;48.358;10.746;2023-08-01T03:21:33;95193.69;;;19.21;nan
10014;BME280;45684;48.358;10.746;2023-08-01T03:24:03;95189.44;;;19.13;nan
10014;BME280;45684;48.358;10.746;2023-08-01T03:26:35;95189.44;;;19.02;nan
10014;BME280;45684;48.358;10.746;2023-08-01T03:29:03;95198.47;;;18.99;nan
10014;BME280;45684;48.358;10.746;2023-08-01T03:31:32;95194.94;;;18.88;nan
10014;BME280;45684;48.358;10.746;2023-08-01T03:33:59;95189.88;;;18.79;nan
10014;BME280;45684;48.358;10.746;2023-08-01T03:36:28;95193.78;;;18.78;nan
10014;BME280;45684;48.358;10.746;2023-08-01T03:38:58;95180.88;;;18.78;nan
10014;BME280;45684;48.358;10.746;2023-08-01T03:41:26;95180.09;;;18.81;nan
10014;BME280;45684;48.358;10.746;2023-08-01T03:43:53;95173.84;;;18.70;nan
10014;BME280;45684;48.358;10.746;2023-08-01T03:46:21;95177.38;;;18.71;nan
10014;BME280;45684;48.358;10.746;2023-08-01T03:48:49;95171.50;;;18.69;nan
10014;BME280;45684;48.358;10.746;2023-08-01T03:51:17;95169.16;;;18.71;nan
10014;BME280;45684;48.358;10.746;2023-08-01T03:53:45;95167.56;;;18.70;nan
10014;BME280;45684;48.358;10.746;2023-08-01T03:56:23;95164.84;;;18.73;nan
10014;BME280;45684;48.358;10.746;2023-08-01T03:58:51;95167.56;;;18.73;nan
10014;BME280;45684;48.358;10.746;2023-08-01T04:01:19;95166.03;;;18.76;nan
10014;BME280;45684;48.358;10.746;2023-08-01T04:03:47;95159.75;;;18.75;nan
10014;BME280;45684;48.358;10.746;2023-08-01T04:06:15;95164.47;;;18.71;nan
10014;BME280;45684;48.358;10.746;2023-08-01T04:08:43;95151.91;;;18.77;nan
10014;BME280;45684;48.358;10.746;2023-08-01T04:11:11;95151.53;;;18.82;nan
10014;BME280;45684;48.358;10.746;2023-08-01T04:13:40;95135.84;;;18.86;nan
10014;BME280;45684;48.358;10.746;2023-08-01T04:16:08;95142.13;;;18.87;nan
10014;BME280;45684;48.358;10.746;2023-08-01T04:18:36;95136.28;;;18.81;nan
10014;BME280;45684;48.358;10.746;2023-08-01T04:21:03;95133.16;;;18.79;nan
10014;BME280;45684;48.358;10.746;2023-08-01T04:23:31;95126.09;;;18.85;nan
10014;BME280;45684;48.358;10.746;2023-08-01T04:25:58;95117.09;;;18.89;nan
10014;BME280;45684;48.358;10.746;2023-08-01T04:28:26;95117.06;;;18.92;nan
10014;BME280;45684;48.358;10.746;2023-08-01T04:30:55;95115.50;;;18.95;nan
10014;BME280;45684;48.358;10.746;2023-08-01T04:33:23;95113.94;;;18.94;nan
10014;BME280;45684;48.358;10.746;2023-08-01T04:35:51;95113.53;;;18.92;nan
10014;BME280;45684;48.358;10.746;2023-08-01T04:38:19;95104.13;;;18.93;nan
10014;BME280;45684;48.358;10.746;2023-08-01T04:40:47;95108.47;;;18.94;nan
10014;BME280;45684;48.358;10.746;2023-08-01T04:43:17;95109.63;;;18.93;nan
10014;BME280;45684;48.358;10.746;2023-08-01T04:45:45;95111.56;;;18.96;nan
10014;BME280;45684;48.358;10.746;2023-08-01T04:48:14;95106.50;;;18.91;nan
10014;BME280;45684;48.358;10.746;2023-08-01T04:50:42;95111.56;;;18.92;nan
10014;BME280;45684;48.358;10.746;2023-08-01T04:53:10;95112.75;;;18.95;nan
10014;BME280;45684;48.358;10.746;2023-08-01T04:55:40;95108.06;;;18.99;nan
10014;BME280;45684;48.358;10.746;2023-08-01T04:58:07;95113.53;;;18.99;nan
10014;BME280;45684;48.358;10.746;2023-08-01T05:00:37;95123.31;;;19.03;nan
10014;BME280;45684;48.358;10.746;2023-08-01T05:03:05;95130.72;;;19.10;nan
10014;BME280;45684;48.358;10.746;2023-08-01T05:05:35;95138.16;;;19.13;nan
10014;BME280;45684;48.358;10.746;2023-08-01T05:08:03;95135.78;;;19.11;nan
10014;BME280;45684;48.358;10.746;2023-08-01T05:10:31;95135.00;;;19.11;nan
10014;BME280;45684;48.358;10.746;2023-08-01T05:12:59;95135.00;;;19.18;nan
10014;BME280;45684;48.358;10.746;2023-08-01T05:15:27;95125.94;;;19.25;nan
10014;BME280;45684;48.358;10.746;2023-08-01T05:17:57;95126.72;;;19.32;nan
10014;BME280;45684;48.358;10.746;2023-08-01T05:20:28;95124.75;;;19.36;nan
10014;BME280;45684;48.358;10.746;2023-08-01T05:22:58;95134.16;;;19.35;nan
10014;BME280;45684;48.358;10.746;2023-08-01T05:25:26;95129.81;;;19.38;nan
10014;BME280;45684;48.358;10.746;2023-08-01T05:27:54;95117.28;;;19.41;nan
10014;BME280;45684;48.358;10.746;2023-08-01T05:30:23;95110.97;;;19.47;nan
10014;BME280;45684;48.358;10.746;2023-08-01T05:32:51;95118.41;;;19.54;nan
10014;BME280;45684;48.358;10.746;2023-08-01T05:35:20;95111.69;;;19.62;nan
10014;BME280;45684;48.358;10.746;2023-08-01T05:37:48;95106.59;;;19.64;nan
10014;BME280;45684;48.358;10.746;2023-08-01T05:40:17;95088.56;;;19.67;nan
10014;BME280;45684;48.358;10.746;2023-08-01T05:42:45;95073.28;;;19.69;nan
10014;BME280;45684;48.358;10.746;2023-08-01T05:45:13;95060.69;;;19.75;nan
10014;BME280;45684;48.358;10.746;2023-08-01T05:47:41;95045.00;;;19.76;nan
10014;BME280;45684;48.358;10.746;2023-08-01T05:50:09;95045.78;;;19.76;nan
10014;BME280;45684;48.358;10.746;2023-08-01T05:52:37;95018.38;;;19.73;nan
10014;BME280;45684;48.358;10.746;2023-08-01T05:55:06;95009.69;;;19.81;nan
10014;BME280;45684;48.358;10.746;2023-08-01T05:57:36;94990.47;;;19.81;nan
10014;BME280;45684;48.358;10.746;2023-08-01T06:00:05;94958.41;;;19.75;nan
10014;BME280;45684;48.358;10.746;2023-08-01T06:02:41;94969.38;;;19.75;nan
10014;BME280;45684;48.358;10.746;2023-08-01T06:05:09;94975.28;;;19.70;nan
10014;BME280;45684;48.358;10.746;2023-08-01T06:07:37;94968.59;;;19.74;nan
10014;BME280;45684;48.358;10.746;2023-08-01T06:10:06;94988.63;;;19.68;nan
10014;BME280;45684;48.358;10.746;2023-08-01T06:12:35;94983.09;;;19.71;nan
10014;BME280;45684;48.358;10.746;2023-08-01T06:15:04;94992.09;;;19.75;nan
10014;BME280;45684;48.358;10.746;2023-08-01T06:17:32;95005.00;;;19.82;nan
10014;BME280;45684;48.358;10.746;2023-08-01T06:20:00;95009.25;;;19.86;nan
10014;BME280;45684;48.358;10.746;2023-08-01T06:22:31;94998.22;;;19.94;nan
10014;BME280;45684;48.358;10.746;2023-08-01T06:24:58;95022.88;;;19.97;nan
10014;BME280;45684;48.358;10.746;2023-08-01T06:27:26;95000.50;;;20.02;nan
10014;BME280;45684;48.358;10.746;2023-08-01T06:29:56;95009.06;;;20.08;nan
10014;BME280;45684;48.358;10.746;2023-08-01T06:32:24;95022.69;;;20.19;nan
10014;BME280;45684;48.358;10.746;2023-08-01T06:34:52;95015.94;;;20.27;nan
10014;BME280;45684;48.358;10.746;2023-08-01T06:37:23;95013.09;;;20.37;nan
10014;BME280;45684;48.358;10.746;2023-08-01T06:39:51;95020.84;;;20.46;nan
10014;BME280;45684;48.358;10.746;2023-08-01T06:42:19;95027.09;;;20.54;nan
10014;BME280;45684;48.358;10.746;2023-08-01T06:44:47;95044.47;;;20.78;nan
10014;BME280;45684;48.358;10.746;2023-08-01T06:47:17;95038.47;;;20.90;nan
10014;BME280;45684;48.358;10.746;2023-08-01T06:49:44;95028.53;;;21.00;nan
10014;BME280;45684;48.358;10.746;2023-08-01T06:52:12;95038.56;;;21.13;nan
10014;BME280;45684;48.358;10.746;2023-08-01T06:54:40;95042.09;;;21.14;nan
10014;BME280;45684;48.358;10.746;2023-08-01T06:57:08;95032.56;;;21.22;nan
10014;BME280;45684;48.358;10.746;2023-08-01T06:59:36;95045.38;;;21.36;nan
10014;BME280;45684;48.358;10.746;2023-08-01T07:02:07;95045.56;;;21.49;nan
10014;BME280;45684;48.358;10.746;2023-08-01T07:04:36;95029.03;;;21.52;nan
10014;BME280;45684;48.358;10.746;2023-08-01T07:07:05;95036.09;;;21.53;nan
10014;BME280;45684;48.358;10.746;2023-08-01T07:09:35;95045.50;;;21.56;nan
10014;BME280;45684;48.358;10.746;2023-08-01T07:12:04;95046.06;;;21.71;nan
10014;BME280;45684;48.358;10.746;2023-08-01T07:14:32;95042.75;;;21.83;nan
10014;BME280;45684;48.358;10.746;2023-08-01T07:16:59;95041.97;;;22.06;nan
10014;BME280;45684;48.358;10.746;2023-08-01T07:19:27;95042.19;;;22.19;nan
10014;BME280;45684;48.358;10.746;2023-08-01T07:21:57;95047.56;;;22.26;nan
10014;BME280;45684;48.358;10.746;2023-08-01T07:24:25;95050.72;;;22.24;nan
10014;BME280;45684;48.358;10.746;2023-08-01T07:26:55;95061.31;;;22.02;nan
10014;BME280;45684;48.358;10.746;2023-08-01T07:29:23;95055.50;;;21.97;nan
10014;BME280;45684;48.358;10.746;2023-08-01T07:31:50;95023.72;;;21.92;nan
10014;BME280;45684;48.358;10.746;2023-08-01T07:34:18;95028.59;;;21.81;nan
10014;BME280;45684;48.358;10.746;2023-08-01T07:36:49;95028.72;;;21.74;nan
10014;BME280;45684;48.358;10.746;2023-08-01T07:39:19;95024.25;;;21.56;nan
10014;BME280;45684;48.358;10.746;2023-08-01T07:41:47;95032.94;;;21.55;nan
10014;BME280;45684;48.358;10.746;2023-08-01T07:44:15;95022.91;;;21.41;nan
10014;BME280;45684;48.358;10.746;2023-08-01T07:46:44;95032.06;;;21.31;nan
10014;BME280;45684;48.358;10.746;2023-08-01T07:49:11;95035.97;;;21.30;nan
10014;BME280;45684;48.358;10.746;2023-08-01T07:51:39;95037.16;;;21.32;nan
10014;BME280;45684;48.358;10.746;2023-08-01T07:54:07;95044.03;;;21.48;nan
10014;BME280;45684;48.358;10.746;2023-08-01T07:56:36;95040.00;;;21.56;nan
10014;BME280;45684;48.358;10.746;2023-08-01T07:59:05;95037.75;;;21.47;nan
10014;BME280;45684;48.358;10.746;2023-08-01T08:01:32;95035.47;;;21.42;nan
10014;BME280;45684;48.358;10.746;2023-08-01T08:04:00;95044.97;;;21.37;nan
10014;BME280;45684;48.358;10.746;2023-08-01T08:06:29;95043.41;;;21.36;nan
10014;BME280;45684;48.358;10.746;2023-08-01T08:08:57;95049.63;;;21.41;nan
10014;BME280;45684;48.358;10.746;2023-08-01T08:11:25;95062.03;;;21.52;nan
10014;BME280;45684;48.358;10.746;2023-08-01T08:13:54;95050.63;;;21.54;nan
10014;BME280;45684;48.358;10.746;2023-08-01T08:16:22;95051.84;;;21.49;nan
10014;BME280;45684;48.358;10.746;2023-08-01T08:18:50;95049.09;;;21.49;nan
10014;BME280;45684;48.358;10.746;2023-08-01T08:21:18;95049.06;;;21.53;nan
10014;BME280;45684;48.358;10.746;2023-08-01T08:23:46;95043.50;;;21.56;nan
10014;BME280;45684;48.358;10.746;2023-08-01T08:26:14;95046.22;;;21.60;nan
10014;BME280;45684;48.358;10.746;2023-08-01T08:28:41;95039.25;;;21.79;nan
10014;BME280;45684;48.358;10.746;2023-08-01T08:31:11;95050.00;;;21.97;nan
10014;BME280;45684;48.358;10.746;2023-08-01T08:33:39;95048.63;;;22.08;nan
10014;BME280;45684;48.358;10.746;2023-08-01T08:36:07;95056.31;;;22.21;nan
10014;BME280;45684;48.358;10.746;2023-08-01T08:38:34;95059.22;;;22.33;nan
10014;BME280;45684;48.358;10.746;2023-08-01T08:41:07;95055.41;;;22.51;nan
10014;BME280;45684;48.358;10.746;2023-08-01T08:43:36;95059.59;;;22.59;nan
10014;BME280;45684;48.358;10.746;2023-08-01T08:46:05;95068.50;;;22.66;nan
10014;BME280;45684;48.358;10.746;2023-08-01T08:48:35;95057.41;;;22.70;nan
10014;BME280;45684;48.358;10.746;2023-08-01T08:51:05;95071.97;;;22.71;nan
10014;BME280;45684;48.358;10.746;2023-08-01T08:53:34;95075.13;;;22.92;nan
10014;BME280;45684;48.358;10.746;2023-08-01T08:56:03;95069.06;;;23.01;nan
10014;BME280;45684;48.358;10.746;2023-08-01T08:58:31;95068.56;;;23.06;nan
10014;BME280;45684;48.358;10.746;2023-08-01T09:01:00;95061.13;;;23.03;nan
10014;BME280;45684;48.358;10.746;2023-08-01T09:03:54;95072.59;;;23.22;nan
10014;BME280;45684;48.358;10.746;2023-08-01T09:06:24;95067.84;;;23.42;nan
10014;BME280;45684;48.358;10.746;2023-08-01T09:09:00;95068.53;;;23.66;nan
10014;BME280;45684;48.358;10.746;2023-08-01T09:11:29;95067.69;;;23.69;nan
10014;BME280;45684;48.358;10.746;2023-08-01T09:14:02;95076.53;;;23.60;nan
10014;BME280;45684;48.358;10.746;2023-08-01T09:16:30;95086.38;;;23.41;nan
10014;BME280;45684;48.358;10.746;2023-08-01T09:18:59;95084.91;;;23.37;nan
10014;BME280;45684;48.358;10.746;2023-08-01T09:21:31;95091.69;;;23.32;nan
10014;BME280;45684;48.358;10.746;2023-08-01T09:24:08;95093.38;;;23.46;nan
10014;BME280;45684;48.358;10.746;2023-08-01T09:26:37;95093.25;;;23.33;nan
10014;BME280;45684;48.358;10.746;2023-08-01T09:29:06;95097.50;;;23.18;nan
10014;BME280;45684;48.358;10.746;2023-08-01T09:31:36;95103.66;;;22.82;nan
10014;BME280;45684;48.358;10.746;2023-08-01T09:34:17;95093.69;;;22.45;nan
10014;BME280;45684;48.358;10.746;2023-08-01T09:36:45;95104.03;;;22.37;nan
10014;BME280;45684;48.358;10.746;2023-08-01T09:39:16;95110.16;;;22.25;nan
10014;BME280;45684;48.358;10.746;2023-08-01T09:41:44;95112.50;;;21.96;nan
10014;BME280;45684;48.358;10.746;2023-08-01T09:44:14;95107.75;;;21.73;nan
10014;BME280;45684;48.358;10.746;2023-08-01T09:46:43;95098.19;;;21.54;nan
10014;BME280;45684;48.358;10.746;2023-08-01T09:49:12;95103.81;;;21.44;nan
10014;BME280;45684;48.358;10.746;2023-08-01T09:51:49;95101.22;;;21.29;nan
10014;BME280;45684;48.358;10.746;2023-08-01T09:54:17;95107.31;;;21.13;nan
10014;BME280;45684;48.358;10.746;2023-08-01T09:56:47;95108.06;;;20.80;nan
10014;BME280;45684;48.358;10.746;2023-08-01T09:59:19;95111.34;;;20.64;nan
10014;BME280;45684;48.358;10.746;2023-08-01T10:01:48;95098.91;;;20.52;nan
10014;BME280;45684;48.358;10.746;2023-08-01T10:04:21;95097.09;;;20.31;nan
10014;BME280;45684;48.358;10.746;2023-08-01T10:06:57;95099.16;;;20.20;nan
10014;BME280;45684;48.358;10.746;2023-08-01T10:09:27;95068.66;;;20.07;nan
10014;BME280;45684;48.358;10.746;2023-08-01T10:11:56;95028.31;;;20.04;nan
10014;BME280;45684;48.358;10.746;2023-08-01T10:14:26;94996.28;;;19.91;nan
10014;BME280;45684;48.358;10.746;2023-08-01T10:16:54;95001.41;;;19.88;nan
10014;BME280;45684;48.358;10.746;2023-08-01T10:19:24;95001.81;;;19.87;nan
10014;BME280;45684;48.358;10.746;2023-08-01T10:21:54;95011.53;;;19.95;nan
10014;BME280;45684;48.358;10.746;2023-08-01T10:24:23;95049.56;;;19.97;nan
10014;BME280;45684;48.358;10.746;2023-08-01T10:26:52;95060.53;;;19.97;nan
10014;BME280;45684;48.358;10.746;2023-08-01T10:29:20;95066.66;;;20.15;nan
10014;BME280;45684;48.358;10.746;2023-08-01T10:31:51;95063.84;;;20.22;nan
10014;BME280;45684;48.358;10.746;2023-08-01T10:34:20;95066.47;;;20.33;nan
10014;BME280;45684;48.358;10.746;2023-08-01T10:36:56;95079.63;;;20.56;nan
10014;BME280;45684;48.358;10.746;2023-08-01T10:39:27;95087.34;;;20.72;nan
10014;BME280;45684;48.358;10.746;2023-08-01T10:41:59;95070.88;;;21.02;nan
10014;BME280;45684;48.358;10.746;2023-08-01T10:44:27;95069.31;;;21.05;nan
10014;BME280;45684;48.358;10.746;2023-08-01T10:46:59;95066.56;;;21.35;nan
10014;BME280;45684;48.358;10.746;2023-08-01T10:49:36;95070.31;;;21.18;nan
10014;BME280;45684;48.358;10.746;2023-08-01T10:52:16;95068.09;;;21.40;nan
10014;BME280;45684;48.358;10.746;2023-08-01T10:54:44;95071.69;;;21.37;nan
10014;BME280;45684;48.358;10.746;2023-08-01T10:57:16;95073.25;;;21.38;nan
10014;BME280;45684;48.358;10.746;2023-08-01T10:59:44;95075.69;;;21.32;nan
10014;BME280;45684;48.358;10.746;2023-08-01T11:02:20;95088.72;;;21.21;nan
10014;BME280;45684;48.358;10.746;2023-08-01T11:04:55;95086.94;;;21.07;nan
10014;BME280;45684;48.358;10.746;2023-08-01T11:07:25;95096.47;;;20.99;nan
10014;BME280;45684;48.358;10.746;2023-08-01T11:10:06;95088.03;;;20.79;nan
10014;BME280;45684;48.358;10.746;2023-08-01T11:12:36;95082.38;;;20.94;nan
10014;BME280;45684;48.358;10.746;2023-08-01T11:15:05;95090.22;;;20.95;nan
10014;BME280;45684;48.358;10.746;2023-08-01T11:17:35;95082.03;;;20.92;nan
10014;BME280;45684;48.358;10.746;2023-08-01T11:20:04;95086.91;;;20.77;nan
10014;BME280;45684;48.358;10.746;2023-08-01T11:22:35;95088.72;;;20.53;nan
10014;BME280;45684;48.358;10.746;2023-08-01T11:25:04;95090.72;;;20.49;nan
10014;BME280;45684;48.358;10.746;2023-08-01T11:27:33;95094.22;;;20.46;nan
10014;BME280;45684;48.358;10.746;2023-08-01T11:30:01;95095.06;;;20.43;nan
10014;BME280;45684;48.358;10.746;2023-08-01T11:32:34;95092.72;;;20.37;nan
10014;BME280;45684;48.358;10.746;2023-08-01T11:35:02;95077.47;;;20.33;nan
10014;BME280;45684;48.358;10.746;2023-08-01T11:37:30;95097.44;;;20.37;nan
10014;BME280;45684;48.358;10.746;2023-08-01T11:40:01;95106.50;;;20.34;nan
10014;BME280;45684;48.358;10.746;2023-08-01T11:42:32;95115.88;;;20.36;nan
10014;BME280;45684;48.358;10.746;2023-08-01T11:45:11;95121.25;;;20.54;nan
10014;BME280;45684;48.358;10.746;2023-08-01T11:47:44;95122.75;;;20.62;nan
10014;BME280;45684;48.358;10.746;2023-08-01T11:50:13;95126.91;;;20.78;nan
10014;BME280;45684;48.358;10.746;2023-08-01T11:52:40;95134.03;;;20.75;nan
10014;BME280;45684;48.358;10.746;2023-08-01T11:55:18;95149.66;;;20.82;nan
10014;BME280;45684;48.358;10.746;2023-08-01T11:57:54;95157.63;;;20.69;nan
10014;BME280;45684;48.358;10.746;2023-08-01T12:00:23;95156.81;;;20.72;nan
10014;BME280;45684;48.358;10.746;2023-08-01T12:02:51;95154.09;;;20.69;nan
10014;BME280;45684;48.358;10.746;2023-08-01T12:05:23;95153.00;;;20.59;nan
10014;BME280;45684;48.358;10.746;2023-08-01T12:07:51;95143.97;;;20.58;nan
10014;BME280;45684;48.358;10.746;2023-08-01T12:10:20;95150.25;;;20.59;nan
10014;BME280;45684;48.358;10.746;2023-08-01T12:12:48;95132.66;;;20.53;nan
10014;BME280;45684;48.358;10.746;2023-08-01T12:15:16;95143.38;;;20.33;nan
10014;BME280;45684;48.358;10.746;2023-08-01T12:17:44;95121.16;;;20.17;nan
10014;BME280;45684;48.358;10.746;2023-08-01T12:20:12;95135.94;;;20.30;nan
10014;BME280;45684;48.358;10.746;2023-08-01T12:22:39;95114.81;;;20.23;nan
10014;BME280;45684;48.358;10.746;2023-08-01T12:25:08;95117.66;;;20.09;nan
10014;BME280;45684;48.358;10.746;2023-08-01T12:27:37;95137.81;;;19.88;nan
10014;BME280;45684;48.358;10.746;2023-08-01T12:30:06;95127.28;;;19.76;nan
10014;BME280;45684;48.358;10.746;2023-08-01T12:32:34;95143.03;;;19.68;nan
10014;BME280;45684;48.358;10.746;2023-08-01T12:35:05;95121.47;;;19.70;nan
10014;BME280;45684;48.358;10.746;2023-08-01T12:37:32;95116.75;;;19.67;nan
10014;BME280;45684;48.358;10.746;2023-08-01T12:40:00;95109.94;;;19.97;nan
10014;BME280;45684;48.358;10.746;2023-08-01T12:42:28;95121.81;;;20.31;nan
10014;BME280;45684;48.358;10.746;2023-08-01T12:44:57;95119.69;;;20.95;nan
10014;BME280;45684;48.358;10.746;2023-08-01T12:47:25;95113.50;;;21.55;nan
10014;BME280;45684;48.358;10.746;2023-08-01T12:49:53;95106.31;;;21.92;nan
10014;BME280;45684;48.358;10.746;2023-08-01T12:52:25;95116.63;;;21.84;nan
10014;BME280;45684;48.358;10.746;2023-08-01T12:54:53;95120.19;;;21.81;nan
10014;BME280;45684;48.358;10.746;2023-08-01T12:57:20;95104.53;;;21.78;nan
10014;BME280;45684;48.358;10.746;2023-08-01T12:59:48;95108.38;;;21.84;nan
10014;BME280;45684;48.358;10.746;2023-08-01T13:02:18;95098.69;;;21.73;nan
10014;BME280;45684;48.358;10.746;2023-08-01T13:04:45;95094.81;;;21.39;nan
10014;BME280;45684;48.358;10.746;2023-08-01T13:07:13;95110.44;;;21.12;nan
10014;BME280;45684;48.358;10.746;2023-08-01T13:09:41;95105.94;;;20.95;nan
10014;BME280;45684;48.358;10.746;2023-08-01T13:12:09;95100.50;;;20.87;nan
10014;BME280;45684;48.358;10.746;2023-08-01T13:14:37;95113.47;;;20.87;nan
10014;BME280;45684;48.358;10.746;2023-08-01T13:17:05;95115.94;;;20.78;nan
10014;BME280;45684;48.358;10.746;2023-08-01T13:19:34;95127.00;;;20.71;nan